createdAt,value
2018-05-12T00:01:05.497Z,24.23
2018-05-12T00:03:33.646Z,22.13
2018-05-12T00:06:01.815Z,22.20
2018-05-12T00:08:29.955Z,23.40
2018-05-12T00:10:58.083Z,22.17
2018-05-12T00:13:26.221Z,24.10
2018-05-12T00:15:54.386Z,23.43
2018-05-12T00:18:22.504Z,28.53
2018-05-12T00:20:50.670Z,22.13
2018-05-12T00:23:18.852Z,25.55
2018-05-12T00:25:46.990Z,23.50
2018-05-12T00:28:15.135Z,21.90
2018-05-12T00:30:43.279Z,33.03
2018-05-12T00:33:11.413Z,22.40
2018-05-12T00:35:39.649Z,21.33
2018-05-12T00:38:07.818Z,19.73
2018-05-12T00:40:35.970Z,21.30
2018-05-12T00:43:04.196Z,27.03
2018-05-12T00:45:32.284Z,24.83
2018-05-12T00:48:00.423Z,21.97
2018-05-12T00:50:28.589Z,18.87
2018-05-12T00:52:56.752Z,23.37
2018-05-12T00:55:24.903Z,21.37
2018-05-12T00:57:53.087Z,22.70
2018-05-12T01:00:21.193Z,22.23
2018-05-12T01:02:49.337Z,20.90
2018-05-12T01:05:17.484Z,24.23
2018-05-12T01:07:46.414Z,19.80
2018-05-12T01:10:14.553Z,20.57
2018-05-12T01:12:42.731Z,27.23
2018-05-12T01:15:10.887Z,27.97
2018-05-12T01:17:38.993Z,22.63
2018-05-12T01:20:07.135Z,20.10
2018-05-12T01:22:35.254Z,21.50
2018-05-12T01:25:03.406Z,20.60
2018-05-12T01:27:31.570Z,27.90
2018-05-12T01:29:59.688Z,20.60
2018-05-12T01:32:27.838Z,21.83
2018-05-12T01:34:55.972Z,23.60
2018-05-12T01:37:24.107Z,21.65
2018-05-12T01:39:52.247Z,21.03
2018-05-12T01:42:20.416Z,25.37
2018-05-12T01:44:48.543Z,23.80
2018-05-12T01:47:16.673Z,21.30
2018-05-12T01:49:44.838Z,22.93
2018-05-12T01:52:12.970Z,30.40
2018-05-12T01:54:41.128Z,21.57
2018-05-12T01:57:10.256Z,20.52
2018-05-12T01:59:38.635Z,19.53
2018-05-12T02:02:06.765Z,21.03
2018-05-12T02:04:34.915Z,20.87
2018-05-12T02:07:03.084Z,20.97
2018-05-12T02:09:31.236Z,22.55
2018-05-12T02:11:59.373Z,20.93
2018-05-12T02:14:27.512Z,21.33
2018-05-12T02:16:55.644Z,22.90
2018-05-12T02:19:23.789Z,19.97
2018-05-12T02:21:51.915Z,19.97
2018-05-12T02:24:20.039Z,20.77
2018-05-12T02:26:48.175Z,20.17
2018-05-12T02:29:16.319Z,22.10
2018-05-12T02:31:44.457Z,19.17
2018-05-12T02:34:12.643Z,22.13
2018-05-12T02:36:40.790Z,19.20
2018-05-12T02:39:09.937Z,21.25
2018-05-12T02:41:38.090Z,19.93
2018-05-12T02:44:06.230Z,22.33
2018-05-12T02:46:34.357Z,20.90
2018-05-12T02:49:02.494Z,23.37
2018-05-12T02:51:30.639Z,20.87
2018-05-12T02:53:58.781Z,20.13
2018-05-12T02:56:26.928Z,20.70
2018-05-12T02:58:55.068Z,25.57
2018-05-12T03:01:23.225Z,22.90
2018-05-12T03:03:51.364Z,22.37
2018-05-12T03:06:19.507Z,22.07
2018-05-12T03:08:47.632Z,21.77
2018-05-12T03:11:15.775Z,45.08
2018-05-12T03:13:43.905Z,23.63
2018-05-12T03:16:12.043Z,24.60
2018-05-12T03:18:40.171Z,23.07
2018-05-12T03:21:08.306Z,23.53
2018-05-12T03:23:36.433Z,24.57
2018-05-12T03:26:04.604Z,22.80
2018-05-12T03:28:32.717Z,28.80
2018-05-12T03:31:00.869Z,22.10
2018-05-12T03:33:29.023Z,22.73
2018-05-12T03:35:57.145Z,27.60
2018-05-12T03:38:25.285Z,24.03
2018-05-12T03:40:53.459Z,23.90
2018-05-12T03:43:21.593Z,22.73
2018-05-12T03:45:49.726Z,20.73
2018-05-12T03:48:17.854Z,24.30
2018-05-12T03:50:46.005Z,22.40
2018-05-12T03:53:14.135Z,25.73
2018-05-12T03:55:42.278Z,21.83
2018-05-12T03:58:10.429Z,21.63
2018-05-12T04:00:38.610Z,19.80
2018-05-12T04:03:06.825Z,19.97
2018-05-12T04:05:46.811Z,19.33
2018-05-12T04:08:26.624Z,23.23
2018-05-12T04:11:06.595Z,19.37
2018-05-12T04:13:34.730Z,20.80
2018-05-12T04:16:02.868Z,21.37
2018-05-12T04:18:31.014Z,22.07
2018-05-12T04:20:59.152Z,25.63
2018-05-12T04:23:27.301Z,20.45
2018-05-12T04:25:55.441Z,20.40
2018-05-12T04:28:23.595Z,20.30
2018-05-12T04:30:52.893Z,19.50
2018-05-12T04:33:21.019Z,18.53
2018-05-12T04:35:49.159Z,18.53
2018-05-12T04:38:17.297Z,18.70
2018-05-12T04:40:45.420Z,17.50
2018-05-12T04:43:13.558Z,17.40
2018-05-12T04:45:41.704Z,16.87
2018-05-12T04:48:09.839Z,15.80
2018-05-12T04:50:37.973Z,17.67
2018-05-12T04:53:06.191Z,16.40
2018-05-12T04:55:34.368Z,15.43
2018-05-12T04:58:02.525Z,16.43
2018-05-12T05:00:30.662Z,17.20
2018-05-12T05:02:58.785Z,21.07
2018-05-12T05:05:26.918Z,22.62
2018-05-12T05:07:55.070Z,30.40
2018-05-12T05:10:23.243Z,29.50
2018-05-12T05:12:51.390Z,34.30
2018-05-12T05:15:19.527Z,37.83
2018-05-12T05:17:47.666Z,35.90
2018-05-12T05:20:15.873Z,35.50
2018-05-12T05:22:43.949Z,37.40
2018-05-12T05:25:12.090Z,36.80
2018-05-12T05:27:40.226Z,36.77
2018-05-12T05:30:08.355Z,36.53
2018-05-12T05:32:36.499Z,44.85
2018-05-12T05:35:04.643Z,51.70
2018-05-12T05:37:32.782Z,47.63
2018-05-12T05:40:00.917Z,37.07
2018-05-12T05:42:29.074Z,43.20
2018-05-12T05:44:57.220Z,47.80
2018-05-12T05:47:25.346Z,46.67
2018-05-12T05:49:53.494Z,53.63
2018-05-12T05:52:21.635Z,60.37
2018-05-12T05:54:49.777Z,48.37
2018-05-12T05:57:17.913Z,48.78
2018-05-12T05:59:46.047Z,55.33
2018-05-12T06:02:14.176Z,48.80
2018-05-12T06:04:42.340Z,57.70
2018-05-12T06:07:10.828Z,49.77
2018-05-12T06:09:38.876Z,51.93
2018-05-12T06:12:07.017Z,56.33
2018-05-12T06:14:35.167Z,51.30
2018-05-12T06:17:03.307Z,48.30
2018-05-12T06:19:33.062Z,50.97
2018-05-12T06:22:01.190Z,51.88
2018-05-12T06:24:29.322Z,52.27
2018-05-12T06:26:57.482Z,52.67
2018-05-12T06:29:27.171Z,52.23
2018-05-12T06:31:56.569Z,50.22
2018-05-12T06:34:24.758Z,47.63
2018-05-12T06:36:52.906Z,49.53
2018-05-12T06:39:21.072Z,47.67
2018-05-12T06:41:49.182Z,55.43
2018-05-12T06:44:17.338Z,52.87
2018-05-12T06:46:45.485Z,50.27
2018-05-12T06:49:13.712Z,49.73
2018-05-12T06:51:41.831Z,50.97
2018-05-12T06:54:09.975Z,56.33
2018-05-12T06:56:38.139Z,50.63
2018-05-12T06:59:06.297Z,44.00
2018-05-12T07:01:34.443Z,48.43
2018-05-12T07:04:02.606Z,45.47
2018-05-12T07:06:30.738Z,47.63
2018-05-12T07:08:58.878Z,45.13
2018-05-12T07:11:27.011Z,55.42
2018-05-12T07:13:55.159Z,52.33
2018-05-12T07:16:23.312Z,48.53
2018-05-12T07:18:51.463Z,54.70
2018-05-12T07:21:19.585Z,50.92
2018-05-12T07:23:47.718Z,51.70
2018-05-12T07:26:15.854Z,46.53
2018-05-12T07:28:43.994Z,49.90
2018-05-12T07:31:12.150Z,57.17
2018-05-12T07:33:40.294Z,52.37
2018-05-12T07:36:08.431Z,58.67
2018-05-12T07:38:36.597Z,53.33
2018-05-12T07:41:04.729Z,48.40
2018-05-12T07:43:32.855Z,43.80
2018-05-12T07:46:00.990Z,52.57
2018-05-12T07:48:29.168Z,53.77
2018-05-12T07:50:57.351Z,45.10
2018-05-12T07:53:25.512Z,57.83
2018-05-12T07:55:53.655Z,49.07
2018-05-12T07:58:21.779Z,44.90
2018-05-12T08:00:49.912Z,55.03
2018-05-12T08:03:18.047Z,42.83
2018-05-12T08:05:46.187Z,48.20
2018-05-12T08:08:14.337Z,42.10
2018-05-12T08:10:42.496Z,44.40
2018-05-12T08:13:10.652Z,49.47
2018-05-12T08:15:38.790Z,49.28
2018-05-12T08:18:06.953Z,52.87
2018-05-12T08:20:35.177Z,42.13
2018-05-12T08:23:03.220Z,43.43
2018-05-12T08:25:32.898Z,39.13
2018-05-12T08:28:01.045Z,41.08
2018-05-12T08:30:30.069Z,48.47
2018-05-12T08:33:00.127Z,38.70
2018-05-12T08:35:28.334Z,46.70
2018-05-12T08:37:56.481Z,39.40
2018-05-12T08:40:24.650Z,32.47
2018-05-12T08:42:52.791Z,49.00
2018-05-12T08:45:20.943Z,40.90
2018-05-12T08:47:49.128Z,45.37
2018-05-12T08:50:17.264Z,43.00
2018-05-12T08:52:45.400Z,37.47
2018-05-12T08:55:13.550Z,39.83
2018-05-12T08:57:41.688Z,39.30
2018-05-12T09:00:09.810Z,32.80
2018-05-12T09:05:12.190Z,36.37
2018-05-12T09:07:40.333Z,38.70
2018-05-12T09:10:08.469Z,36.47
2018-05-12T09:12:36.594Z,41.43
2018-05-12T09:15:04.864Z,37.80
2018-05-12T09:17:32.999Z,30.50
2018-05-12T09:20:01.140Z,39.77
2018-05-12T09:22:29.291Z,38.90
2018-05-12T09:24:57.419Z,36.37
2018-05-12T09:27:25.577Z,33.28
2018-05-12T09:29:53.711Z,40.10
2018-05-12T09:32:21.854Z,40.20
2018-05-12T09:34:50.014Z,31.77
2018-05-12T09:37:18.222Z,31.35
2018-05-12T09:39:46.339Z,36.50
2018-05-12T09:42:14.561Z,39.57
2018-05-12T09:44:42.625Z,36.83
2018-05-12T09:47:10.787Z,34.67
2018-05-12T09:49:38.925Z,33.60
2018-05-12T09:52:07.076Z,28.27
2018-05-12T09:54:35.217Z,37.60
2018-05-12T09:57:03.380Z,32.80
2018-05-12T09:59:31.736Z,31.57
2018-05-12T10:01:59.806Z,23.87
2018-05-12T10:04:27.932Z,24.00
2018-05-12T10:06:56.095Z,28.70
2018-05-12T10:09:24.231Z,28.17
2018-05-12T10:11:52.365Z,28.87
2018-05-12T10:14:20.526Z,30.20
2018-05-12T10:16:48.694Z,27.10
2018-05-12T10:19:16.861Z,23.92
2018-05-12T10:21:45.066Z,28.92
2018-05-12T10:24:13.235Z,21.80
2018-05-12T10:26:41.340Z,21.07
2018-05-12T10:29:10.223Z,23.83
2018-05-12T10:31:38.350Z,20.90
2018-05-12T10:34:06.483Z,19.80
2018-05-12T10:36:34.643Z,17.30
2018-05-12T10:39:02.770Z,19.63
2018-05-12T10:41:30.907Z,20.40
2018-05-12T10:43:59.073Z,14.23
2018-05-12T10:46:27.191Z,16.03
2018-05-12T10:48:55.341Z,15.77
2018-05-12T10:51:23.669Z,14.95
2018-05-12T10:53:51.812Z,14.53
2018-05-12T10:56:19.934Z,16.87
2018-05-12T10:58:48.109Z,14.67
2018-05-12T11:01:16.241Z,12.37
2018-05-12T11:03:44.375Z,13.70
2018-05-12T11:06:12.534Z,18.90
2018-05-12T11:08:40.671Z,13.30
2018-05-12T11:11:09.295Z,15.37
2018-05-12T11:13:37.730Z,16.33
2018-05-12T11:16:05.979Z,14.93
2018-05-12T11:18:34.062Z,16.43
2018-05-12T11:21:02.212Z,17.80
2018-05-12T11:23:30.363Z,16.20
2018-05-12T11:25:58.499Z,14.73
2018-05-12T11:28:26.648Z,13.40
2018-05-12T11:30:54.870Z,16.90
2018-05-12T11:33:23.018Z,13.70
2018-05-12T11:35:51.348Z,11.23
2018-05-12T11:38:19.466Z,9.93
2018-05-12T11:40:47.634Z,20.63
2018-05-12T11:43:15.803Z,12.73
2018-05-12T11:45:43.941Z,13.67
2018-05-12T11:48:12.093Z,11.47
2018-05-12T11:50:40.267Z,11.53
2018-05-12T11:53:08.458Z,11.37
2018-05-12T11:55:36.600Z,18.17
2018-05-12T11:58:04.774Z,12.33
2018-05-12T12:00:32.920Z,11.73
2018-05-12T12:03:01.075Z,17.03
2018-05-12T12:05:29.387Z,17.70
2018-05-12T12:07:57.512Z,12.95
2018-05-12T12:10:25.663Z,9.40
2018-05-12T12:12:53.839Z,11.93
2018-05-12T12:15:21.987Z,11.00
2018-05-12T12:17:50.137Z,8.87
2018-05-12T12:20:18.308Z,12.60
2018-05-12T12:22:46.450Z,7.47
2018-05-12T12:25:14.569Z,10.80
2018-05-12T12:27:42.712Z,8.37
2018-05-12T12:30:10.853Z,11.50
2018-05-12T12:32:39.024Z,9.47
2018-05-12T12:35:07.274Z,8.27
2018-05-12T12:37:35.405Z,9.53
2018-05-12T12:40:03.539Z,6.53
2018-05-12T12:42:31.859Z,6.80
2018-05-12T12:44:59.988Z,6.70
2018-05-12T12:47:28.116Z,7.47
2018-05-12T12:49:56.280Z,8.53
2018-05-12T12:52:24.381Z,7.45
2018-05-12T12:54:52.505Z,16.53
2018-05-12T12:57:20.653Z,11.77
2018-05-12T12:59:48.762Z,8.10
2018-05-12T13:02:16.903Z,8.07
2018-05-12T13:04:45.316Z,13.33
2018-05-12T13:07:13.353Z,8.60
2018-05-12T13:09:41.482Z,11.13
2018-05-12T13:12:09.784Z,12.07
2018-05-12T13:14:41.043Z,14.40
2018-05-12T13:17:09.177Z,13.87
2018-05-12T13:19:37.343Z,13.93
2018-05-12T13:22:05.600Z,16.27
2018-05-12T13:24:33.659Z,13.43
2018-05-12T13:27:01.838Z,13.90
2018-05-12T13:29:29.968Z,11.03
2018-05-12T13:31:58.095Z,11.13
2018-05-12T13:34:26.255Z,10.88
2018-05-12T13:36:54.379Z,10.20
2018-05-12T13:39:22.523Z,10.40
2018-05-12T13:41:50.689Z,11.43
2018-05-12T13:44:18.855Z,10.50
2018-05-12T13:46:46.979Z,9.13
2018-05-12T13:49:15.215Z,10.10
2018-05-12T13:51:43.340Z,10.90
2018-05-12T13:54:11.466Z,8.03
2018-05-12T13:56:39.770Z,14.93
2018-05-12T13:59:08.731Z,10.73
2018-05-12T14:01:36.897Z,8.97
2018-05-12T14:04:05.047Z,12.50
2018-05-12T14:06:33.183Z,9.50
2018-05-12T14:09:01.311Z,9.80
2018-05-12T14:11:29.472Z,9.07
2018-05-12T14:13:57.582Z,9.90
2018-05-12T14:16:25.716Z,10.17
2018-05-12T14:18:53.967Z,10.20
2018-05-12T14:21:22.083Z,9.93
2018-05-12T14:23:50.222Z,11.90
2018-05-12T14:26:18.520Z,9.93
2018-05-12T14:28:46.658Z,10.80
2018-05-12T14:31:14.804Z,11.00
2018-05-12T14:33:42.969Z,8.00
2018-05-12T14:36:11.121Z,7.60
2018-05-12T14:38:39.244Z,7.35
2018-05-12T14:41:07.453Z,7.43
2018-05-12T14:43:35.567Z,8.10
2018-05-12T14:46:03.720Z,11.93
2018-05-12T14:48:31.861Z,6.57
2018-05-12T14:50:59.996Z,6.07
2018-05-12T14:53:28.148Z,6.60
2018-05-12T14:55:58.353Z,7.27
2018-05-12T14:58:26.492Z,9.53
2018-05-12T15:00:54.613Z,7.10
2018-05-12T15:03:22.768Z,8.30
2018-05-12T15:05:50.907Z,6.90
2018-05-12T15:08:19.096Z,7.33
2018-05-12T15:10:47.234Z,8.50
2018-05-12T15:13:15.352Z,8.07
2018-05-12T15:15:43.506Z,7.40
2018-05-12T15:18:11.673Z,8.20
2018-05-12T15:20:39.783Z,10.30
2018-05-12T15:23:07.915Z,7.57
2018-05-12T15:25:36.199Z,6.50
2018-05-12T15:28:04.319Z,7.10
2018-05-12T15:30:32.446Z,6.60
2018-05-12T15:33:00.899Z,7.20
2018-05-12T15:35:29.034Z,10.33
2018-05-12T15:37:57.176Z,10.03
2018-05-12T15:40:25.322Z,8.13
2018-05-12T15:42:53.475Z,7.43
2018-05-12T15:45:21.601Z,7.12
2018-05-12T15:47:49.757Z,30.73
2018-05-12T15:50:17.915Z,31.87
2018-05-12T15:52:46.067Z,9.93
2018-05-12T15:55:14.354Z,8.60
2018-05-12T15:57:42.500Z,20.80
2018-05-12T16:00:10.651Z,13.50
2018-05-12T16:02:38.778Z,8.03
2018-05-12T16:05:06.988Z,8.57
2018-05-12T16:07:35.119Z,10.40
2018-05-12T16:10:03.281Z,8.37
2018-05-12T16:12:31.411Z,9.37
2018-05-12T16:14:59.543Z,9.73
2018-05-12T16:17:27.687Z,8.75
2018-05-12T16:19:55.794Z,9.80
2018-05-12T16:22:23.952Z,8.57
2018-05-12T16:24:52.131Z,9.43
2018-05-12T16:27:20.276Z,10.33
2018-05-12T16:29:49.716Z,12.10
2018-05-12T16:32:18.255Z,11.47
2018-05-12T16:34:46.444Z,8.80
2018-05-12T16:37:14.559Z,8.57
2018-05-12T16:39:42.724Z,11.10
2018-05-12T16:42:10.850Z,9.43
2018-05-12T16:44:39.089Z,8.30
2018-05-12T16:47:07.223Z,13.83
2018-05-12T16:49:35.340Z,8.50
2018-05-12T16:52:03.471Z,7.30
2018-05-12T16:54:31.629Z,7.67
2018-05-12T16:56:59.747Z,9.03
2018-05-12T16:59:27.861Z,9.67
2018-05-12T17:01:56.068Z,9.50
2018-05-12T17:04:24.120Z,8.17
2018-05-12T17:06:52.234Z,9.37
2018-05-12T17:09:20.379Z,11.68
2018-05-12T17:11:48.502Z,10.00
2018-05-12T17:14:16.635Z,9.50
2018-05-12T17:16:44.759Z,9.37
2018-05-12T17:19:12.897Z,14.53
2018-05-12T17:21:41.042Z,11.40
2018-05-12T17:24:09.178Z,9.77
2018-05-12T17:26:37.307Z,10.10
2018-05-12T17:29:05.468Z,11.27
2018-05-12T17:31:33.661Z,10.50
2018-05-12T17:34:01.810Z,10.75
2018-05-12T17:36:29.939Z,11.80
2018-05-12T17:38:58.081Z,12.57
2018-05-12T17:41:26.215Z,13.43
2018-05-12T17:43:54.378Z,10.90
2018-05-12T17:46:22.510Z,12.97
2018-05-12T17:48:50.652Z,10.57
2018-05-12T17:51:18.864Z,11.18
2018-05-12T17:53:47.065Z,11.50
2018-05-12T17:56:15.262Z,11.30
2018-05-12T17:58:43.424Z,11.73
2018-05-12T18:01:11.577Z,12.67
2018-05-12T18:03:39.727Z,11.27
2018-05-12T18:06:07.859Z,10.23
2018-05-12T18:08:35.996Z,11.53
2018-05-12T18:11:04.286Z,10.27
2018-05-12T18:13:32.416Z,11.33
2018-05-12T18:16:00.576Z,14.53
2018-05-12T18:18:28.715Z,11.87
2018-05-12T18:20:56.857Z,16.17
2018-05-12T18:23:25.031Z,18.45
2018-05-12T18:25:53.177Z,13.83
2018-05-12T18:28:21.327Z,13.20
2018-05-12T18:30:49.515Z,13.40
2018-05-12T18:33:17.637Z,17.00
2018-05-12T18:35:45.781Z,12.33
2018-05-12T18:38:13.948Z,15.20
2018-05-12T18:40:43.581Z,14.93
2018-05-12T18:43:11.796Z,13.50
2018-05-12T18:45:39.940Z,17.87
2018-05-12T18:48:08.087Z,13.40
2018-05-12T18:50:36.280Z,20.07
2018-05-12T18:53:04.397Z,14.63
2018-05-12T18:55:32.528Z,13.93
2018-05-12T18:58:00.662Z,13.80
2018-05-12T19:00:28.826Z,22.30
